sensor_id;sensor_type;location;lat;lon;timestamp;P1;durP1;ratioP1;P2;durP2;ratioP2
25045;SDS011;13044;49.304;12.840;2022-10-16T00:01:34;4.57;;;3.42;;
25045;SDS011;13044;49.304;12.840;2022-10-16T00:04:01;8.05;;;3.63;;
25045;SDS011;13044;49.304;12.840;2022-10-16T00:06:29;7.93;;;3.67;;
25045;SDS011;13044;49.304;12.840;2022-10-16T00:08:57;9.18;;;3.65;;
25045;SDS011;13044;49.304;12.840;2022-10-16T00:11:26;10.45;;;3.22;;
25045;SDS011;13044;49.304;12.840;2022-10-16T00:13:57;5.90;;;4.15;;
25045;SDS011;13044;49.304;12.840;2022-10-16T00:16:27;9.95;;;3.22;;
25045;SDS011;13044;49.304;12.840;2022-10-16T00:18:55;3.97;;;3.33;;
25045;SDS011;13044;49.304;12.840;2022-10-16T00:21:23;7.28;;;3.75;;
25045;SDS011;13044;49.304;12.840;2022-10-16T00:23:54;7.05;;;4.22;;
25045;SDS011;13044;49.304;12.840;2022-10-16T00:26:27;5.82;;;3.65;;
25045;SDS011;13044;49.304;12.840;2022-10-16T00:28:56;5.30;;;3.50;;
25045;SDS011;13044;49.304;12.840;2022-10-16T00:31:24;7.57;;;3.90;;
25045;SDS011;13044;49.304;12.840;2022-10-16T00:33:51;4.45;;;3.70;;
25045;SDS011;13044;49.304;12.840;2022-10-16T00:36:19;11.52;;;4.13;;
25045;SDS011;13044;49.304;12.840;2022-10-16T00:38:50;11.32;;;4.10;;
25045;SDS011;13044;49.304;12.840;2022-10-16T00:41:22;8.85;;;4.32;;
25045;SDS011;13044;49.304;12.840;2022-10-16T00:43:57;4.15;;;3.60;;
25045;SDS011;13044;49.304;12.840;2022-10-16T00:46:35;7.15;;;3.70;;
25045;SDS011;13044;49.304;12.840;2022-10-16T00:49:10;10.35;;;4.30;;
25045;SDS011;13044;49.304;12.840;2022-10-16T00:51:42;8.13;;;4.10;;
25045;SDS011;13044;49.304;12.840;2022-10-16T00:54:16;7.93;;;3.90;;
25045;SDS011;13044;49.304;12.840;2022-10-16T00:56:51;10.18;;;4.05;;
25045;SDS011;13044;49.304;12.840;2022-10-16T00:59:39;8.93;;;3.88;;
25045;SDS011;13044;49.304;12.840;2022-10-16T01:02:08;6.53;;;3.67;;
25045;SDS011;13044;49.304;12.840;2022-10-16T01:04:41;10.25;;;3.63;;
25045;SDS011;13044;49.304;12.840;2022-10-16T01:07:33;5.05;;;3.45;;
25045;SDS011;13044;49.304;12.840;2022-10-16T01:13:33;7.20;;;3.15;;
25045;SDS011;13044;49.304;12.840;2022-10-16T01:19:09;5.35;;;3.10;;
25045;SDS011;13044;49.304;12.840;2022-10-16T01:22:01;4.47;;;3.30;;
25045;SDS011;13044;49.304;12.840;2022-10-16T01:24:33;4.15;;;3.17;;
25045;SDS011;13044;49.304;12.840;2022-10-16T01:27:15;11.77;;;3.60;;
25045;SDS011;13044;49.304;12.840;2022-10-16T01:32:46;4.35;;;3.35;;
25045;SDS011;13044;49.304;12.840;2022-10-16T01:38:26;12.23;;;3.70;;
25045;SDS011;13044;49.304;12.840;2022-10-16T01:41:01;5.03;;;3.17;;
25045;SDS011;13044;49.304;12.840;2022-10-16T01:43:38;8.63;;;3.22;;
25045;SDS011;13044;49.304;12.840;2022-10-16T01:46:13;9.93;;;3.30;;
25045;SDS011;13044;49.304;12.840;2022-10-16T01:48:43;8.07;;;3.70;;
25045;SDS011;13044;49.304;12.840;2022-10-16T01:51:10;9.68;;;4.00;;
25045;SDS011;13044;49.304;12.840;2022-10-16T01:53:39;6.38;;;3.35;;
25045;SDS011;13044;49.304;12.840;2022-10-16T01:56:12;6.30;;;3.42;;
25045;SDS011;13044;49.304;12.840;2022-10-16T01:58:45;7.30;;;3.30;;
25045;SDS011;13044;49.304;12.840;2022-10-16T02:01:17;6.47;;;3.50;;
25045;SDS011;13044;49.304;12.840;2022-10-16T02:03:49;8.27;;;3.67;;
25045;SDS011;13044;49.304;12.840;2022-10-16T02:06:20;3.88;;;3.03;;
25045;SDS011;13044;49.304;12.840;2022-10-16T02:08:48;8.63;;;3.85;;
25045;SDS011;13044;49.304;12.840;2022-10-16T02:11:15;6.65;;;3.55;;
25045;SDS011;13044;49.304;12.840;2022-10-16T02:13:44;9.95;;;3.42;;
25045;SDS011;13044;49.304;12.840;2022-10-16T02:16:14;7.55;;;3.28;;
25045;SDS011;13044;49.304;12.840;2022-10-16T02:18:42;5.60;;;3.50;;
25045;SDS011;13044;49.304;12.840;2022-10-16T02:21:13;6.38;;;3.40;;
25045;SDS011;13044;49.304;12.840;2022-10-16T02:23:58;5.20;;;3.20;;
25045;SDS011;13044;49.304;12.840;2022-10-16T02:26:38;4.90;;;3.53;;
25045;SDS011;13044;49.304;12.840;2022-10-16T02:29:24;4.80;;;3.38;;
25045;SDS011;13044;49.304;12.840;2022-10-16T02:31:54;10.52;;;3.97;;
25045;SDS011;13044;49.304;12.840;2022-10-16T02:34:26;6.30;;;3.08;;
25045;SDS011;13044;49.304;12.840;2022-10-16T02:36:54;10.32;;;3.90;;
25045;SDS011;13044;49.304;12.840;2022-10-16T02:39:23;8.15;;;4.03;;
25045;SDS011;13044;49.304;12.840;2022-10-16T02:41:51;7.85;;;3.47;;
25045;SDS011;13044;49.304;12.840;2022-10-16T02:44:17;4.55;;;4.03;;
25045;SDS011;13044;49.304;12.840;2022-10-16T02:46:44;11.55;;;3.65;;
25045;SDS011;13044;49.304;12.840;2022-10-16T02:49:11;7.20;;;3.75;;
25045;SDS011;13044;49.304;12.840;2022-10-16T02:51:38;12.57;;;3.88;;
25045;SDS011;13044;49.304;12.840;2022-10-16T02:54:04;6.32;;;2.90;;
25045;SDS011;13044;49.304;12.840;2022-10-16T02:56:31;5.38;;;2.92;;
25045;SDS011;13044;49.304;12.840;2022-10-16T02:58:58;7.80;;;3.67;;
25045;SDS011;13044;49.304;12.840;2022-10-16T03:01:25;6.72;;;3.50;;
25045;SDS011;13044;49.304;12.840;2022-10-16T03:03:52;7.35;;;3.63;;
25045;SDS011;13044;49.304;12.840;2022-10-16T03:06:19;8.30;;;3.55;;
25045;SDS011;13044;49.304;12.840;2022-10-16T03:08:45;9.30;;;3.47;;
25045;SDS011;13044;49.304;12.840;2022-10-16T03:11:12;5.05;;;3.25;;
25045;SDS011;13044;49.304;12.840;2022-10-16T03:13:39;6.07;;;3.58;;
25045;SDS011;13044;49.304;12.840;2022-10-16T03:16:06;8.85;;;4.00;;
25045;SDS011;13044;49.304;12.840;2022-10-16T03:18:33;6.07;;;3.72;;
25045;SDS011;13044;49.304;12.840;2022-10-16T03:21:00;5.55;;;3.55;;
25045;SDS011;13044;49.304;12.840;2022-10-16T03:23:26;5.85;;;3.47;;
25045;SDS011;13044;49.304;12.840;2022-10-16T03:25:54;8.05;;;3.55;;
25045;SDS011;13044;49.304;12.840;2022-10-16T03:28:20;6.10;;;3.80;;
25045;SDS011;13044;49.304;12.840;2022-10-16T03:30:47;8.20;;;4.00;;
25045;SDS011;13044;49.304;12.840;2022-10-16T03:33:14;12.35;;;3.97;;
25045;SDS011;13044;49.304;12.840;2022-10-16T03:35:41;11.48;;;3.40;;
25045;SDS011;13044;49.304;12.840;2022-10-16T03:38:08;6.28;;;3.22;;
25045;SDS011;13044;49.304;12.840;2022-10-16T03:40:34;6.55;;;3.63;;
25045;SDS011;13044;49.304;12.840;2022-10-16T03:43:01;6.60;;;3.40;;
25045;SDS011;13044;49.304;12.840;2022-10-16T03:45:28;5.38;;;3.13;;
25045;SDS011;13044;49.304;12.840;2022-10-16T03:47:55;4.80;;;3.30;;
25045;SDS011;13044;49.304;12.840;2022-10-16T03:50:21;6.47;;;3.22;;
25045;SDS011;13044;49.304;12.840;2022-10-16T03:52:48;8.30;;;3.40;;
25045;SDS011;13044;49.304;12.840;2022-10-16T03:55:15;6.07;;;3.47;;
25045;SDS011;13044;49.304;12.840;2022-10-16T03:57:42;8.75;;;3.60;;
25045;SDS011;13044;49.304;12.840;2022-10-16T04:00:09;4.35;;;3.38;;
25045;SDS011;13044;49.304;12.840;2022-10-16T04:02:37;6.32;;;3.42;;
25045;SDS011;13044;49.304;12.840;2022-10-16T04:05:04;4.85;;;2.97;;
25045;SDS011;13044;49.304;12.840;2022-10-16T04:07:31;11.98;;;3.70;;
25045;SDS011;13044;49.304;12.840;2022-10-16T04:09:58;7.75;;;3.42;;
25045;SDS011;13044;49.304;12.840;2022-10-16T04:12:25;9.15;;;3.15;;
25045;SDS011;13044;49.304;12.840;2022-10-16T04:14:52;7.38;;;3.20;;
25045;SDS011;13044;49.304;12.840;2022-10-16T04:17:19;8.88;;;3.42;;
25045;SDS011;13044;49.304;12.840;2022-10-16T04:19:46;8.30;;;3.83;;
25045;SDS011;13044;49.304;12.840;2022-10-16T04:22:13;13.07;;;3.80;;
25045;SDS011;13044;49.304;12.840;2022-10-16T04:24:40;5.50;;;3.80;;
25045;SDS011;13044;49.304;12.840;2022-10-16T04:27:07;6.45;;;3.50;;
25045;SDS011;13044;49.304;12.840;2022-10-16T04:29:33;4.65;;;3.60;;
25045;SDS011;13044;49.304;12.840;2022-10-16T04:32:00;6.95;;;3.28;;
25045;SDS011;13044;49.304;12.840;2022-10-16T04:34:27;4.05;;;3.45;;
25045;SDS011;13044;49.304;12.840;2022-10-16T04:36:54;6.75;;;3.45;;
25045;SDS011;13044;49.304;12.840;2022-10-16T04:39:20;5.28;;;3.00;;
25045;SDS011;13044;49.304;12.840;2022-10-16T04:41:47;4.03;;;3.42;;
25045;SDS011;13044;49.304;12.840;2022-10-16T04:44:14;4.55;;;3.33;;
25045;SDS011;13044;49.304;12.840;2022-10-16T04:46:41;7.50;;;3.20;;
25045;SDS011;13044;49.304;12.840;2022-10-16T04:49:07;14.75;;;3.30;;
25045;SDS011;13044;49.304;12.840;2022-10-16T04:51:34;4.43;;;3.22;;
25045;SDS011;13044;49.304;12.840;2022-10-16T04:54:02;7.43;;;3.40;;
25045;SDS011;13044;49.304;12.840;2022-10-16T04:56:28;5.80;;;3.10;;
25045;SDS011;13044;49.304;12.840;2022-10-16T04:58:55;9.60;;;3.47;;
25045;SDS011;13044;49.304;12.840;2022-10-16T05:01:22;5.95;;;3.70;;
25045;SDS011;13044;49.304;12.840;2022-10-16T05:03:49;9.90;;;3.30;;
25045;SDS011;13044;49.304;12.840;2022-10-16T05:06:15;7.70;;;3.03;;
25045;SDS011;13044;49.304;12.840;2022-10-16T05:08:42;11.43;;;3.20;;
25045;SDS011;13044;49.304;12.840;2022-10-16T05:11:09;11.82;;;3.70;;
25045;SDS011;13044;49.304;12.840;2022-10-16T05:13:36;9.82;;;3.95;;
25045;SDS011;13044;49.304;12.840;2022-10-16T05:16:02;7.43;;;3.38;;
25045;SDS011;13044;49.304;12.840;2022-10-16T05:18:30;8.90;;;3.50;;
25045;SDS011;13044;49.304;12.840;2022-10-16T05:20:56;4.75;;;3.47;;
25045;SDS011;13044;49.304;12.840;2022-10-16T05:23:23;10.20;;;3.60;;
25045;SDS011;13044;49.304;12.840;2022-10-16T05:25:54;6.72;;;3.70;;
25045;SDS011;13044;49.304;12.840;2022-10-16T05:28:24;6.07;;;3.60;;
25045;SDS011;13044;49.304;12.840;2022-10-16T05:30:56;9.30;;;3.70;;
25045;SDS011;13044;49.304;12.840;2022-10-16T05:33:24;6.80;;;3.72;;
25045;SDS011;13044;49.304;12.840;2022-10-16T05:35:51;7.75;;;3.40;;
25045;SDS011;13044;49.304;12.840;2022-10-16T05:38:18;10.10;;;3.83;;
25045;SDS011;13044;49.304;12.840;2022-10-16T05:40:51;7.72;;;3.70;;
25045;SDS011;13044;49.304;12.840;2022-10-16T05:43:19;10.07;;;4.00;;
25045;SDS011;13044;49.304;12.840;2022-10-16T05:45:53;8.13;;;3.60;;
25045;SDS011;13044;49.304;12.840;2022-10-16T05:48:24;8.13;;;3.20;;
25045;SDS011;13044;49.304;12.840;2022-10-16T05:53:36;6.53;;;3.60;;
25045;SDS011;13044;49.304;12.840;2022-10-16T05:56:05;4.72;;;3.70;;
25045;SDS011;13044;49.304;12.840;2022-10-16T05:58:35;4.43;;;3.70;;
25045;SDS011;13044;49.304;12.840;2022-10-16T06:01:04;6.95;;;3.60;;
25045;SDS011;13044;49.304;12.840;2022-10-16T06:03:43;4.18;;;3.30;;
25045;SDS011;13044;49.304;12.840;2022-10-16T06:06:11;5.30;;;3.20;;
25045;SDS011;13044;49.304;12.840;2022-10-16T06:08:43;9.05;;;3.92;;
25045;SDS011;13044;49.304;12.840;2022-10-16T06:11:12;6.90;;;3.85;;
25045;SDS011;13044;49.304;12.840;2022-10-16T06:13:44;6.20;;;3.67;;
25045;SDS011;13044;49.304;12.840;2022-10-16T06:16:15;8.00;;;4.22;;
25045;SDS011;13044;49.304;12.840;2022-10-16T06:18:42;12.48;;;6.30;;
25045;SDS011;13044;49.304;12.840;2022-10-16T06:21:09;17.33;;;6.97;;
25045;SDS011;13044;49.304;12.840;2022-10-16T06:23:46;10.40;;;4.88;;
25045;SDS011;13044;49.304;12.840;2022-10-16T06:26:15;33.33;;;19.42;;
25045;SDS011;13044;49.304;12.840;2022-10-16T06:28:46;24.50;;;15.48;;
25045;SDS011;13044;49.304;12.840;2022-10-16T06:31:13;29.02;;;17.20;;
25045;SDS011;13044;49.304;12.840;2022-10-16T06:33:41;17.13;;;9.68;;
25045;SDS011;13044;49.304;12.840;2022-10-16T06:36:09;14.18;;;9.32;;
25045;SDS011;13044;49.304;12.840;2022-10-16T06:38:38;10.82;;;6.88;;
25045;SDS011;13044;49.304;12.840;2022-10-16T06:41:06;4.97;;;3.60;;
25045;SDS011;13044;49.304;12.840;2022-10-16T06:43:36;6.30;;;2.78;;
25045;SDS011;13044;49.304;12.840;2022-10-16T06:46:03;10.35;;;3.15;;
25045;SDS011;13044;49.304;12.840;2022-10-16T06:48:33;5.43;;;2.33;;
25045;SDS011;13044;49.304;12.840;2022-10-16T06:53:32;3.78;;;2.58;;
25045;SDS011;13044;49.304;12.840;2022-10-16T06:58:43;6.97;;;2.40;;
25045;SDS011;13044;49.304;12.840;2022-10-16T07:01:12;4.50;;;2.45;;
25045;SDS011;13044;49.304;12.840;2022-10-16T07:03:40;2.75;;;2.28;;
25045;SDS011;13044;49.304;12.840;2022-10-16T07:06:09;4.03;;;2.30;;
25045;SDS011;13044;49.304;12.840;2022-10-16T07:08:40;10.45;;;3.13;;
25045;SDS011;13044;49.304;12.840;2022-10-16T07:11:10;2.60;;;2.38;;
25045;SDS011;13044;49.304;12.840;2022-10-16T07:13:42;6.55;;;2.10;;
25045;SDS011;13044;49.304;12.840;2022-10-16T07:16:20;3.00;;;2.30;;
25045;SDS011;13044;49.304;12.840;2022-10-16T07:18:49;3.78;;;2.10;;
25045;SDS011;13044;49.304;12.840;2022-10-16T07:21:21;1.90;;;1.50;;
25045;SDS011;13044;49.304;12.840;2022-10-16T07:23:52;6.53;;;2.03;;
25045;SDS011;13044;49.304;12.840;2022-10-16T07:26:20;3.05;;;1.92;;
25045;SDS011;13044;49.304;12.840;2022-10-16T07:28:48;3.85;;;1.90;;
25045;SDS011;13044;49.304;12.840;2022-10-16T07:31:17;7.38;;;2.10;;
25045;SDS011;13044;49.304;12.840;2022-10-16T07:33:47;10.60;;;2.20;;
25045;SDS011;13044;49.304;12.840;2022-10-16T07:36:16;3.95;;;1.70;;
25045;SDS011;13044;49.304;12.840;2022-10-16T07:38:45;6.00;;;2.00;;
25045;SDS011;13044;49.304;12.840;2022-10-16T07:41:14;3.30;;;2.15;;
25045;SDS011;13044;49.304;12.840;2022-10-16T07:43:47;2.83;;;2.15;;
25045;SDS011;13044;49.304;12.840;2022-10-16T07:46:17;6.75;;;2.17;;
25045;SDS011;13044;49.304;12.840;2022-10-16T07:48:45;6.90;;;2.65;;
25045;SDS011;13044;49.304;12.840;2022-10-16T07:51:14;7.80;;;2.35;;
25045;SDS011;13044;49.304;12.840;2022-10-16T07:53:44;2.80;;;2.45;;
25045;SDS011;13044;49.304;12.840;2022-10-16T07:56:13;2.92;;;2.17;;
25045;SDS011;13044;49.304;12.840;2022-10-16T07:58:41;3.50;;;1.95;;
25045;SDS011;13044;49.304;12.840;2022-10-16T08:01:09;5.20;;;2.15;;
25045;SDS011;13044;49.304;12.840;2022-10-16T08:03:43;3.22;;;1.80;;
25045;SDS011;13044;49.304;12.840;2022-10-16T08:06:16;2.15;;;1.92;;
25045;SDS011;13044;49.304;12.840;2022-10-16T08:08:50;8.23;;;1.85;;
25045;SDS011;13044;49.304;12.840;2022-10-16T08:11:17;3.17;;;2.00;;
25045;SDS011;13044;49.304;12.840;2022-10-16T08:13:44;6.95;;;2.40;;
25045;SDS011;13044;49.304;12.840;2022-10-16T08:16:11;4.20;;;2.10;;
25045;SDS011;13044;49.304;12.840;2022-10-16T08:18:39;4.80;;;1.80;;
25045;SDS011;13044;49.304;12.840;2022-10-16T08:21:07;1.85;;;1.70;;
25045;SDS011;13044;49.304;12.840;2022-10-16T08:23:46;12.52;;;2.58;;
25045;SDS011;13044;49.304;12.840;2022-10-16T08:26:22;4.18;;;1.77;;
25045;SDS011;13044;49.304;12.840;2022-10-16T08:28:49;4.85;;;1.83;;
25045;SDS011;13044;49.304;12.840;2022-10-16T08:31:17;4.63;;;2.08;;
25045;SDS011;13044;49.304;12.840;2022-10-16T08:33:45;3.85;;;1.90;;
25045;SDS011;13044;49.304;12.840;2022-10-16T08:36:13;3.22;;;2.05;;
25045;SDS011;13044;49.304;12.840;2022-10-16T08:38:41;2.88;;;2.08;;
25045;SDS011;13044;49.304;12.840;2022-10-16T08:41:22;7.03;;;2.00;;
25045;SDS011;13044;49.304;12.840;2022-10-16T08:47:45;2.45;;;1.90;;
25045;SDS011;13044;49.304;12.840;2022-10-16T08:50:23;4.75;;;2.20;;
25045;SDS011;13044;49.304;12.840;2022-10-16T08:52:54;5.20;;;2.03;;
25045;SDS011;13044;49.304;12.840;2022-10-16T08:58:20;4.22;;;2.17;;
25045;SDS011;13044;49.304;12.840;2022-10-16T09:00:57;3.15;;;2.00;;
25045;SDS011;13044;49.304;12.840;2022-10-16T09:09:04;2.70;;;1.90;;
25045;SDS011;13044;49.304;12.840;2022-10-16T09:17:22;4.80;;;2.20;;
25045;SDS011;13044;49.304;12.840;2022-10-16T09:23:16;6.15;;;2.10;;
25045;SDS011;13044;49.304;12.840;2022-10-16T09:25:48;4.80;;;2.10;;
25045;SDS011;13044;49.304;12.840;2022-10-16T09:28:17;2.20;;;1.95;;
25045;SDS011;13044;49.304;12.840;2022-10-16T09:30:45;2.85;;;2.22;;
25045;SDS011;13044;49.304;12.840;2022-10-16T09:33:14;4.13;;;2.47;;
25045;SDS011;13044;49.304;12.840;2022-10-16T09:35:44;4.90;;;2.33;;
25045;SDS011;13044;49.304;12.840;2022-10-16T09:38:33;5.47;;;2.40;;
25045;SDS011;13044;49.304;12.840;2022-10-16T09:41:13;2.13;;;1.95;;
25045;SDS011;13044;49.304;12.840;2022-10-16T09:48:56;2.40;;;2.17;;
25045;SDS011;13044;49.304;12.840;2022-10-16T09:56:36;5.70;;;2.40;;
25045;SDS011;13044;49.304;12.840;2022-10-16T09:59:14;3.78;;;1.92;;
25045;SDS011;13044;49.304;12.840;2022-10-16T10:01:45;2.78;;;2.17;;
25045;SDS011;13044;49.304;12.840;2022-10-16T10:04:22;2.00;;;1.80;;
25045;SDS011;13044;49.304;12.840;2022-10-16T10:06:52;2.20;;;1.80;;
25045;SDS011;13044;49.304;12.840;2022-10-16T10:09:22;4.43;;;2.03;;
25045;SDS011;13044;49.304;12.840;2022-10-16T10:11:57;3.75;;;2.10;;
25045;SDS011;13044;49.304;12.840;2022-10-16T10:14:34;4.95;;;2.78;;
25045;SDS011;13044;49.304;12.840;2022-10-16T10:17:10;4.35;;;2.30;;
25045;SDS011;13044;49.304;12.840;2022-10-16T10:19:47;3.42;;;2.20;;
25045;SDS011;13044;49.304;12.840;2022-10-16T10:39:18;2.78;;;2.00;;
25045;SDS011;13044;49.304;12.840;2022-10-16T10:45:42;2.38;;;1.67;;
25045;SDS011;13044;49.304;12.840;2022-10-16T10:54:34;3.88;;;1.80;;
25045;SDS011;13044;49.304;12.840;2022-10-16T10:57:22;5.10;;;1.55;;
25045;SDS011;13044;49.304;12.840;2022-10-16T11:08:52;2.33;;;1.60;;
25045;SDS011;13044;49.304;12.840;2022-10-16T11:11:32;1.75;;;1.50;;
25045;SDS011;13044;49.304;12.840;2022-10-16T11:16:51;3.20;;;1.40;;
25045;SDS011;13044;49.304;12.840;2022-10-16T11:19:39;2.85;;;1.30;;
25045;SDS011;13044;49.304;12.840;2022-10-16T11:28:08;4.80;;;1.42;;
25045;SDS011;13044;49.304;12.840;2022-10-16T11:33:35;1.50;;;1.40;;
25045;SDS011;13044;49.304;12.840;2022-10-16T11:36:16;1.92;;;1.70;;
25045;SDS011;13044;49.304;12.840;2022-10-16T11:41:51;1.58;;;1.48;;
25045;SDS011;13044;49.304;12.840;2022-10-16T11:56:35;1.10;;;1.10;;
25045;SDS011;13044;49.304;12.840;2022-10-16T11:59:12;1.45;;;1.17;;
25045;SDS011;13044;49.304;12.840;2022-10-16T12:01:59;3.55;;;1.30;;
25045;SDS011;13044;49.304;12.840;2022-10-16T12:05:13;1.38;;;1.23;;
25045;SDS011;13044;49.304;12.840;2022-10-16T12:08:05;2.70;;;1.13;;
25045;SDS011;13044;49.304;12.840;2022-10-16T12:10:43;2.92;;;1.13;;
25045;SDS011;13044;49.304;12.840;2022-10-16T12:16:28;2.65;;;1.40;;
25045;SDS011;13044;49.304;12.840;2022-10-16T12:19:07;1.92;;;1.40;;
25045;SDS011;13044;49.304;12.840;2022-10-16T12:21:39;2.92;;;1.20;;
25045;SDS011;13044;49.304;12.840;2022-10-16T12:24:18;2.72;;;1.13;;
25045;SDS011;13044;49.304;12.840;2022-10-16T12:27:05;2.30;;;1.10;;
25045;SDS011;13044;49.304;12.840;2022-10-16T12:30:14;5.10;;;1.25;;
25045;SDS011;13044;49.304;12.840;2022-10-16T12:32:59;3.17;;;0.85;;
25045;SDS011;13044;49.304;12.840;2022-10-16T12:35:32;1.20;;;1.10;;
25045;SDS011;13044;49.304;12.840;2022-10-16T12:38:18;3.60;;;1.20;;
25045;SDS011;13044;49.304;12.840;2022-10-16T12:41:12;2.00;;;0.95;;
25045;SDS011;13044;49.304;12.840;2022-10-16T12:51:42;1.05;;;1.00;;
25045;SDS011;13044;49.304;12.840;2022-10-16T12:57:03;1.20;;;0.90;;
25045;SDS011;13044;49.304;12.840;2022-10-16T12:59:57;1.40;;;1.30;;
25045;SDS011;13044;49.304;12.840;2022-10-16T13:08:21;2.53;;;1.30;;
25045;SDS011;13044;49.304;12.840;2022-10-16T13:21:03;2.53;;;1.10;;
25045;SDS011;13044;49.304;12.840;2022-10-16T13:24:02;2.67;;;1.30;;
25045;SDS011;13044;49.304;12.840;2022-10-16T13:26:55;1.83;;;1.20;;
25045;SDS011;13044;49.304;12.840;2022-10-16T13:29:53;1.67;;;1.20;;
25045;SDS011;13044;49.304;12.840;2022-10-16T13:32:27;3.55;;;1.10;;
25045;SDS011;13044;49.304;12.840;2022-10-16T13:34:55;1.50;;;1.10;;
25045;SDS011;13044;49.304;12.840;2022-10-16T13:37:24;4.20;;;1.27;;
25045;SDS011;13044;49.304;12.840;2022-10-16T13:40:01;1.45;;;1.25;;
25045;SDS011;13044;49.304;12.840;2022-10-16T13:42:44;3.47;;;1.27;;
25045;SDS011;13044;49.304;12.840;2022-10-16T13:45:18;4.75;;;1.48;;
25045;SDS011;13044;49.304;12.840;2022-10-16T13:48:02;5.45;;;1.35;;
25045;SDS011;13044;49.304;12.840;2022-10-16T13:50:35;1.48;;;1.25;;
25045;SDS011;13044;49.304;12.840;2022-10-16T13:53:03;1.30;;;1.20;;
25045;SDS011;13044;49.304;12.840;2022-10-16T13:55:38;1.25;;;1.15;;
25045;SDS011;13044;49.304;12.840;2022-10-16T13:58:10;1.48;;;1.30;;
25045;SDS011;13044;49.304;12.840;2022-10-16T14:00:40;2.83;;;1.15;;
25045;SDS011;13044;49.304;12.840;2022-10-16T14:03:25;2.85;;;1.33;;
25045;SDS011;13044;49.304;12.840;2022-10-16T14:05:54;3.13;;;1.40;;
25045;SDS011;13044;49.304;12.840;2022-10-16T14:08:24;2.65;;;1.50;;
25045;SDS011;13044;49.304;12.840;2022-10-16T14:10:54;1.48;;;1.35;;
25045;SDS011;13044;49.304;12.840;2022-10-16T14:13:45;3.22;;;1.88;;
25045;SDS011;13044;49.304;12.840;2022-10-16T14:16:16;8.00;;;1.63;;
25045;SDS011;13044;49.304;12.840;2022-10-16T14:18:48;1.52;;;1.42;;
25045;SDS011;13044;49.304;12.840;2022-10-16T14:21:28;3.33;;;1.50;;
25045;SDS011;13044;49.304;12.840;2022-10-16T14:23:56;2.17;;;1.63;;
25045;SDS011;13044;49.304;12.840;2022-10-16T14:26:23;1.73;;;1.45;;
25045;SDS011;13044;49.304;12.840;2022-10-16T14:29:13;2.38;;;1.60;;
25045;SDS011;13044;49.304;12.840;2022-10-16T14:31:54;2.08;;;1.70;;
25045;SDS011;13044;49.304;12.840;2022-10-16T14:37:14;4.85;;;1.80;;
25045;SDS011;13044;49.304;12.840;2022-10-16T14:39:53;2.33;;;1.83;;
25045;SDS011;13044;49.304;12.840;2022-10-16T14:42:23;3.33;;;1.77;;
25045;SDS011;13044;49.304;12.840;2022-10-16T14:44:51;3.88;;;2.15;;
25045;SDS011;13044;49.304;12.840;2022-10-16T14:47:21;1.65;;;1.52;;
25045;SDS011;13044;49.304;12.840;2022-10-16T14:49:53;4.25;;;1.73;;
25045;SDS011;13044;49.304;12.840;2022-10-16T14:52:22;3.50;;;2.00;;
25045;SDS011;13044;49.304;12.840;2022-10-16T14:54:48;4.38;;;1.67;;
25045;SDS011;13044;49.304;12.840;2022-10-16T14:57:17;4.85;;;2.30;;
25045;SDS011;13044;49.304;12.840;2022-10-16T14:59:46;5.35;;;1.98;;
25045;SDS011;13044;49.304;12.840;2022-10-16T15:04:57;2.30;;;2.00;;
25045;SDS011;13044;49.304;12.840;2022-10-16T15:07:31;3.75;;;1.80;;
25045;SDS011;13044;49.304;12.840;2022-10-16T15:09:58;4.00;;;2.03;;
25045;SDS011;13044;49.304;12.840;2022-10-16T15:12:25;3.97;;;2.10;;
25045;SDS011;13044;49.304;12.840;2022-10-16T15:14:51;2.22;;;1.92;;
25045;SDS011;13044;49.304;12.840;2022-10-16T15:17:18;1.98;;;1.88;;
25045;SDS011;13044;49.304;12.840;2022-10-16T15:19:47;2.10;;;1.90;;
25045;SDS011;13044;49.304;12.840;2022-10-16T15:22:14;2.75;;;2.22;;
25045;SDS011;13044;49.304;12.840;2022-10-16T15:24:40;3.25;;;1.88;;
25045;SDS011;13044;49.304;12.840;2022-10-16T15:27:07;4.35;;;1.80;;
25045;SDS011;13044;49.304;12.840;2022-10-16T15:29:34;5.57;;;2.03;;
25045;SDS011;13044;49.304;12.840;2022-10-16T15:32:01;3.25;;;2.22;;
25045;SDS011;13044;49.304;12.840;2022-10-16T15:34:28;6.22;;;2.30;;
25045;SDS011;13044;49.304;12.840;2022-10-16T15:36:55;2.58;;;1.92;;
25045;SDS011;13044;49.304;12.840;2022-10-16T15:39:23;2.33;;;1.90;;
25045;SDS011;13044;49.304;12.840;2022-10-16T15:41:50;3.28;;;2.08;;
25045;SDS011;13044;49.304;12.840;2022-10-16T15:44:19;3.10;;;2.20;;
25045;SDS011;13044;49.304;12.840;2022-10-16T15:46:49;6.82;;;2.08;;
25045;SDS011;13044;49.304;12.840;2022-10-16T15:49:16;4.53;;;2.47;;
25045;SDS011;13044;49.304;12.840;2022-10-16T15:51:43;4.00;;;2.40;;
25045;SDS011;13044;49.304;12.840;2022-10-16T15:54:12;4.85;;;2.33;;
25045;SDS011;13044;49.304;12.840;2022-10-16T15:56:39;5.18;;;2.33;;
25045;SDS011;13044;49.304;12.840;2022-10-16T15:59:05;8.65;;;2.47;;
25045;SDS011;13044;49.304;12.840;2022-10-16T16:01:33;19.40;;;2.83;;
25045;SDS011;13044;49.304;12.840;2022-10-16T16:04:01;4.95;;;2.13;;
25045;SDS011;13044;49.304;12.840;2022-10-16T16:06:40;5.05;;;2.45;;
25045;SDS011;13044;49.304;12.840;2022-10-16T16:09:11;4.85;;;2.20;;
25045;SDS011;13044;49.304;12.840;2022-10-16T16:11:40;4.30;;;3.00;;
25045;SDS011;13044;49.304;12.840;2022-10-16T16:14:09;5.28;;;2.92;;
25045;SDS011;13044;49.304;12.840;2022-10-16T16:16:39;9.25;;;2.88;;
25045;SDS011;13044;49.304;12.840;2022-10-16T16:19:07;8.95;;;2.70;;
25045;SDS011;13044;49.304;12.840;2022-10-16T16:21:37;9.55;;;2.58;;
25045;SDS011;13044;49.304;12.840;2022-10-16T16:24:04;7.57;;;2.70;;
25045;SDS011;13044;49.304;12.840;2022-10-16T16:26:35;10.07;;;2.65;;
25045;SDS011;13044;49.304;12.840;2022-10-16T16:29:05;8.90;;;2.60;;
25045;SDS011;13044;49.304;12.840;2022-10-16T16:31:33;11.82;;;2.95;;
25045;SDS011;13044;49.304;12.840;2022-10-16T16:34:00;13.27;;;2.83;;
25045;SDS011;13044;49.304;12.840;2022-10-16T16:36:27;15.60;;;2.80;;
25045;SDS011;13044;49.304;12.840;2022-10-16T16:38:54;7.07;;;2.78;;
25045;SDS011;13044;49.304;12.840;2022-10-16T16:41:24;9.25;;;3.05;;
25045;SDS011;13044;49.304;12.840;2022-10-16T16:43:54;7.68;;;2.88;;
25045;SDS011;13044;49.304;12.840;2022-10-16T16:46:22;14.75;;;3.20;;
25045;SDS011;13044;49.304;12.840;2022-10-16T16:48:48;36.50;;;10.88;;
25045;SDS011;13044;49.304;12.840;2022-10-16T16:51:16;49.70;;;18.83;;
25045;SDS011;13044;49.304;12.840;2022-10-16T16:53:45;23.42;;;10.77;;
25045;SDS011;13044;49.304;12.840;2022-10-16T16:56:16;11.90;;;5.97;;
25045;SDS011;13044;49.304;12.840;2022-10-16T16:58:47;26.60;;;7.97;;
25045;SDS011;13044;49.304;12.840;2022-10-16T17:01:16;28.95;;;9.23;;
25045;SDS011;13044;49.304;12.840;2022-10-16T17:03:47;20.70;;;8.80;;
25045;SDS011;13044;49.304;12.840;2022-10-16T17:06:24;17.40;;;6.20;;
25045;SDS011;13044;49.304;12.840;2022-10-16T17:08:53;15.77;;;4.78;;
25045;SDS011;13044;49.304;12.840;2022-10-16T17:11:21;15.90;;;5.20;;
25045;SDS011;13044;49.304;12.840;2022-10-16T17:13:51;12.07;;;5.00;;
25045;SDS011;13044;49.304;12.840;2022-10-16T17:16:25;14.82;;;6.70;;
25045;SDS011;13044;49.304;12.840;2022-10-16T17:18:59;30.17;;;16.70;;
25045;SDS011;13044;49.304;12.840;2022-10-16T17:21:32;27.13;;;13.27;;
25045;SDS011;13044;49.304;12.840;2022-10-16T17:24:00;32.75;;;13.88;;
25045;SDS011;13044;49.304;12.840;2022-10-16T17:26:27;21.08;;;12.73;;